Terminal Aerodrome Forecast
Issued by NWS

Home | Current Version | Previous Version | Graphics & Text | Print | Product List | Glossary On
Versions: 1 2 3 4 5 6 7 8 9 10 11 12 13 14
000
FTUS43 KGRB 301100
TAFMTW
TAF
KMTW 301129Z 3012/3112 VRB03KT P6SM SCT035 BKN150
     FM301500 25006KT P6SM SCT035 OVC100
     FM302000 27007KT P6SM SCT035 OVC060
     FM310000 29009KT P6SM -RA BKN035 OVC050
     FM310300 32014G24KT P6SM SCT035 BKN070
     FM310800 34017G27KT P6SM BKN035 OVC050=

USA.gov is the U.S. government's official web portal to all federal, state and local government web resources and services.